createdAt,value
2023-05-14T00:00:48.812Z,10.24
2023-05-14T00:01:48.992Z,10.24
2023-05-14T00:02:49.213Z,10.24
2023-05-14T00:03:49.335Z,10.24
2023-05-14T00:04:49.380Z,10.25
2023-05-14T00:05:49.455Z,10.25
2023-05-14T00:06:49.619Z,10.24
2023-05-14T00:07:49.805Z,10.23
2023-05-14T00:08:49.885Z,10.20
2023-05-14T00:09:50.000Z,10.18
2023-05-14T00:10:50.170Z,10.17
2023-05-14T00:11:50.290Z,10.15
2023-05-14T00:12:50.502Z,10.12
2023-05-14T00:13:50.445Z,10.09
2023-05-14T00:14:50.559Z,10.06
2023-05-14T00:15:50.840Z,10.03
2023-05-14T00:16:50.978Z,10.01
2023-05-14T00:17:51.003Z,9.98
2023-05-14T00:18:51.118Z,9.95
2023-05-14T00:19:51.222Z,9.93
2023-05-14T00:20:51.349Z,9.91
2023-05-14T00:21:51.612Z,9.90
2023-05-14T00:22:51.617Z,9.90
2023-05-14T00:23:51.785Z,9.91
2023-05-14T00:24:51.838Z,9.92
2023-05-14T00:25:51.985Z,9.92
2023-05-14T00:26:52.179Z,9.93
2023-05-14T00:27:52.306Z,9.93
2023-05-14T00:28:52.492Z,9.92
2023-05-14T00:29:52.558Z,9.92
2023-05-14T00:30:52.716Z,9.90
2023-05-14T00:31:53.051Z,9.87
2023-05-14T00:32:53.065Z,9.84
2023-05-14T00:33:53.105Z,9.81
2023-05-14T00:34:53.164Z,9.79
2023-05-14T00:35:53.297Z,9.77
2023-05-14T00:36:53.448Z,9.76
2023-05-14T00:37:53.573Z,9.75
2023-05-14T00:38:53.809Z,9.74
2023-05-14T00:39:53.929Z,9.74
2023-05-14T00:40:54.029Z,9.74
2023-05-14T00:41:54.136Z,9.75
2023-05-14T00:42:54.266Z,9.75
2023-05-14T00:43:54.422Z,9.76
2023-05-14T00:44:54.560Z,9.76
2023-05-14T00:45:54.627Z,9.77
2023-05-14T00:46:54.873Z,9.78
2023-05-14T00:47:54.959Z,9.79
2023-05-14T00:48:55.038Z,9.79
2023-05-14T00:49:55.186Z,9.79
2023-05-14T00:50:55.284Z,9.79
2023-05-14T00:51:55.385Z,9.79
2023-05-14T00:52:55.574Z,9.78
2023-05-14T00:53:55.717Z,9.77
2023-05-14T00:54:55.851Z,9.76
2023-05-14T00:55:55.898Z,9.74
2023-05-14T00:56:56.041Z,9.72
2023-05-14T00:57:56.171Z,9.71
2023-05-14T00:58:56.329Z,9.69
2023-05-14T00:59:56.486Z,9.67
2023-05-14T01:00:56.760Z,9.66
2023-05-14T01:01:56.762Z,9.64
2023-05-14T01:02:56.950Z,9.63
2023-05-14T01:03:57.096Z,9.62
2023-05-14T01:04:57.153Z,9.60
2023-05-14T01:05:57.341Z,9.59
2023-05-14T01:06:57.412Z,9.57
2023-05-14T01:07:57.612Z,9.55
2023-05-14T01:08:57.671Z,9.54
2023-05-14T01:09:57.873Z,9.52
2023-05-14T01:10:57.925Z,9.49
2023-05-14T01:11:58.014Z,9.44
2023-05-14T01:12:58.249Z,9.37
2023-05-14T01:13:58.297Z,9.32
2023-05-14T01:14:58.551Z,9.27
2023-05-14T01:15:58.668Z,9.21
2023-05-14T01:16:58.758Z,9.16
2023-05-14T01:17:58.896Z,9.12
2023-05-14T01:18:58.941Z,9.07
2023-05-14T01:19:59.047Z,9.02
2023-05-14T01:20:59.160Z,8.99
2023-05-14T01:21:59.359Z,8.97
2023-05-14T01:22:59.524Z,8.96
2023-05-14T01:23:59.578Z,8.95
2023-05-14T01:24:59.665Z,8.95
2023-05-14T01:25:59.870Z,8.95
2023-05-14T01:26:59.930Z,8.94
2023-05-14T01:28:00.100Z,8.93
2023-05-14T01:29:00.264Z,8.93
2023-05-14T01:30:00.391Z,8.93
2023-05-14T01:31:00.513Z,8.93
2023-05-14T01:32:00.721Z,8.93
2023-05-14T01:33:00.792Z,8.93
2023-05-14T01:34:00.964Z,8.93
2023-05-14T01:35:01.096Z,8.93
2023-05-14T01:36:01.270Z,8.93
2023-05-14T01:37:01.301Z,8.93
2023-05-14T01:38:01.447Z,8.93
2023-05-14T01:39:01.639Z,8.93
2023-05-14T01:40:01.825Z,8.93
2023-05-14T01:41:01.915Z,8.94
2023-05-14T01:42:02.051Z,8.96
2023-05-14T01:43:02.282Z,8.97
2023-05-14T01:44:02.247Z,8.98
2023-05-14T01:45:02.409Z,8.97
2023-05-14T01:46:02.711Z,8.95
2023-05-14T01:47:02.762Z,8.93
2023-05-14T01:48:02.826Z,8.92
2023-05-14T01:49:02.886Z,8.92
2023-05-14T01:50:03.002Z,8.92
2023-05-14T01:51:03.153Z,8.93
2023-05-14T01:52:03.228Z,8.95
2023-05-14T01:53:03.426Z,8.97
2023-05-14T01:54:03.545Z,8.99
2023-05-14T01:55:03.744Z,9.02
2023-05-14T01:56:03.790Z,9.03
2023-05-14T01:57:03.916Z,9.03
2023-05-14T01:58:04.077Z,9.04
2023-05-14T01:59:04.204Z,9.05
2023-05-14T02:00:04.295Z,9.04
2023-05-14T02:01:04.508Z,9.01
2023-05-14T02:02:04.612Z,8.98
2023-05-14T02:03:04.759Z,8.94
2023-05-14T02:04:04.889Z,8.91
2023-05-14T02:05:06.946Z,8.88
2023-05-14T02:06:05.089Z,8.87
2023-05-14T02:07:05.236Z,8.87
2023-05-14T02:08:05.339Z,8.87
2023-05-14T02:09:05.441Z,8.88
2023-05-14T02:10:05.504Z,8.88
2023-05-14T02:11:05.668Z,8.88
2023-05-14T02:12:05.787Z,8.88
2023-05-14T02:13:05.920Z,8.87
2023-05-14T02:14:06.144Z,8.87
2023-05-14T02:15:06.199Z,8.84
2023-05-14T02:16:06.399Z,8.80
2023-05-14T02:17:06.439Z,8.75
2023-05-14T02:18:06.598Z,8.70
2023-05-14T02:19:06.680Z,8.66
2023-05-14T02:20:06.917Z,8.64
2023-05-14T02:21:06.920Z,8.60
2023-05-14T02:22:07.148Z,8.55
2023-05-14T02:23:07.208Z,8.51
2023-05-14T02:24:07.354Z,8.47
2023-05-14T02:25:07.537Z,8.45
2023-05-14T02:26:07.999Z,8.45
2023-05-14T02:27:07.687Z,8.46
2023-05-14T02:28:07.826Z,8.46
2023-05-14T02:29:07.989Z,8.47
2023-05-14T02:30:08.113Z,8.47
2023-05-14T02:31:08.355Z,8.47
2023-05-14T02:32:08.429Z,8.47
2023-05-14T02:33:08.577Z,8.48
2023-05-14T02:34:08.660Z,8.50
2023-05-14T02:35:08.762Z,8.52
2023-05-14T02:36:08.915Z,8.54
2023-05-14T02:37:09.045Z,8.53
2023-05-14T02:38:09.186Z,8.52
2023-05-14T02:39:09.393Z,8.50
2023-05-14T02:40:09.441Z,8.48
2023-05-14T02:41:09.500Z,8.47
2023-05-14T02:42:09.712Z,8.46
2023-05-14T02:43:09.806Z,8.45
2023-05-14T02:44:09.909Z,8.44
2023-05-14T02:45:10.058Z,8.43
2023-05-14T02:46:10.160Z,8.42
2023-05-14T02:47:10.414Z,8.40
2023-05-14T02:48:10.470Z,8.38
2023-05-14T02:49:10.550Z,8.36
2023-05-14T02:50:10.747Z,8.34
2023-05-14T02:51:10.748Z,8.34
2023-05-14T02:52:11.006Z,8.33
2023-05-14T02:53:11.111Z,8.34
2023-05-14T02:54:11.238Z,8.35
2023-05-14T02:55:11.291Z,8.35
2023-05-14T02:56:11.369Z,8.36
2023-05-14T02:57:11.538Z,8.36
2023-05-14T02:58:11.737Z,8.36
2023-05-14T02:59:11.828Z,8.35
2023-05-14T03:00:11.923Z,8.34
2023-05-14T03:01:12.109Z,8.33
2023-05-14T03:02:12.712Z,8.32
2023-05-14T03:03:12.269Z,8.32
2023-05-14T03:04:12.392Z,8.31
2023-05-14T03:05:12.602Z,8.31
2023-05-14T03:06:12.756Z,8.30
2023-05-14T03:07:12.791Z,8.30
2023-05-14T03:08:12.962Z,8.30
2023-05-14T03:09:13.011Z,8.32
2023-05-14T03:10:13.223Z,8.34
2023-05-14T03:11:13.274Z,8.35
2023-05-14T03:12:13.412Z,8.36
2023-05-14T03:13:13.606Z,8.37
2023-05-14T03:14:13.766Z,8.37
2023-05-14T03:15:13.917Z,8.36
2023-05-14T03:16:14.016Z,8.35
2023-05-14T03:17:14.129Z,8.33
2023-05-14T03:18:14.256Z,8.30
2023-05-14T03:19:14.492Z,8.27
2023-05-14T03:20:14.571Z,8.24
2023-05-14T03:21:14.699Z,8.21
2023-05-14T03:22:14.914Z,8.18
2023-05-14T03:23:14.913Z,8.14
2023-05-14T03:24:15.005Z,8.11
2023-05-14T03:25:15.130Z,8.07
2023-05-14T03:26:15.246Z,8.04
2023-05-14T03:27:15.368Z,8.03
2023-05-14T03:28:15.512Z,8.02
2023-05-14T03:29:15.627Z,8.02
2023-05-14T03:30:15.813Z,8.01
2023-05-14T03:31:15.925Z,8.00
2023-05-14T03:32:16.017Z,7.99
2023-05-14T03:33:16.190Z,7.96
2023-05-14T03:34:16.261Z,7.94
2023-05-14T03:35:16.451Z,7.91
2023-05-14T03:36:16.632Z,7.90
2023-05-14T03:37:16.653Z,7.90
2023-05-14T03:38:16.833Z,7.91
2023-05-14T03:39:17.061Z,7.92
2023-05-14T03:40:17.029Z,7.92
2023-05-14T03:41:17.149Z,7.93
2023-05-14T03:42:17.486Z,7.94
2023-05-14T03:43:17.367Z,7.95
2023-05-14T03:44:17.533Z,7.97
2023-05-14T03:45:17.668Z,7.99
2023-05-14T03:46:17.842Z,8.01
2023-05-14T03:47:17.983Z,8.03
2023-05-14T03:48:18.136Z,8.05
2023-05-14T03:49:18.282Z,8.07
2023-05-14T03:50:18.421Z,8.09
2023-05-14T03:51:18.553Z,8.10
2023-05-14T03:52:18.629Z,8.11
2023-05-14T03:53:18.881Z,8.12
2023-05-14T03:54:18.872Z,8.13
2023-05-14T03:55:19.064Z,8.13
2023-05-14T03:56:19.122Z,8.13
2023-05-14T03:57:19.288Z,8.13
2023-05-14T03:58:19.445Z,8.13
2023-05-14T03:59:19.570Z,8.13
2023-05-14T04:00:19.685Z,8.13
2023-05-14T04:01:19.783Z,8.13
2023-05-14T04:02:19.890Z,8.13
2023-05-14T04:03:20.136Z,8.13
2023-05-14T04:04:20.201Z,8.13
2023-05-14T04:05:20.222Z,8.12
2023-05-14T04:06:20.325Z,8.11
2023-05-14T04:07:20.545Z,8.10
2023-05-14T04:08:20.655Z,8.08
2023-05-14T04:09:20.774Z,8.06
2023-05-14T04:10:20.958Z,8.03
2023-05-14T04:11:20.975Z,7.98
2023-05-14T04:12:21.113Z,7.93
2023-05-14T04:13:21.284Z,7.89
2023-05-14T04:14:21.402Z,7.87
2023-05-14T04:15:22.037Z,7.86
2023-05-14T04:16:21.671Z,7.86
2023-05-14T04:17:21.775Z,7.87
2023-05-14T04:18:21.945Z,7.88
2023-05-14T04:19:22.425Z,7.91
2023-05-14T04:20:22.314Z,7.93
2023-05-14T04:21:22.307Z,7.94
2023-05-14T04:22:22.468Z,7.93
2023-05-14T04:23:22.590Z,7.93
2023-05-14T04:24:22.768Z,7.92
2023-05-14T04:25:22.892Z,7.92
2023-05-14T04:26:22.972Z,7.93
2023-05-14T04:27:23.096Z,7.94
2023-05-14T04:28:23.205Z,7.95
2023-05-14T04:29:23.368Z,7.97
2023-05-14T04:30:23.592Z,7.99
2023-05-14T04:31:23.847Z,8.01
2023-05-14T04:32:23.790Z,8.02
2023-05-14T04:33:23.870Z,8.04
2023-05-14T04:34:24.085Z,8.06
2023-05-14T04:35:25.205Z,8.09
2023-05-14T04:36:24.378Z,8.11
2023-05-14T04:37:24.366Z,8.14
2023-05-14T04:38:24.505Z,8.18
2023-05-14T04:39:24.664Z,8.22
2023-05-14T04:40:24.982Z,8.27
2023-05-14T04:41:24.933Z,8.31
2023-05-14T04:42:25.160Z,8.35
2023-05-14T04:43:25.152Z,8.38
2023-05-14T04:44:25.295Z,8.42
2023-05-14T04:45:25.370Z,8.45
2023-05-14T04:46:25.598Z,8.47
2023-05-14T04:47:25.698Z,8.49
2023-05-14T04:48:25.878Z,8.52
2023-05-14T04:49:25.968Z,8.54
2023-05-14T04:50:26.314Z,8.56
2023-05-14T04:51:26.166Z,8.58
2023-05-14T04:52:26.284Z,8.60
2023-05-14T04:53:26.418Z,8.61
2023-05-14T04:54:27.118Z,8.62
2023-05-14T04:55:26.700Z,8.63
2023-05-14T04:56:26.743Z,8.65
2023-05-14T04:57:26.953Z,8.67
2023-05-14T04:58:27.017Z,8.70
2023-05-14T04:59:27.124Z,8.72
2023-05-14T05:00:27.471Z,8.74
2023-05-14T05:01:27.525Z,8.76
2023-05-14T05:02:27.570Z,8.78
2023-05-14T05:03:27.748Z,8.81
2023-05-14T05:04:27.800Z,8.83
2023-05-14T05:05:27.939Z,8.85
2023-05-14T05:06:28.027Z,8.87
2023-05-14T05:07:28.165Z,8.90
2023-05-14T05:08:28.359Z,8.93
2023-05-14T05:09:28.437Z,8.95
2023-05-14T05:10:28.661Z,8.98
2023-05-14T05:11:28.709Z,9.00
2023-05-14T05:12:28.823Z,9.03
2023-05-14T05:13:29.139Z,9.08
2023-05-14T05:14:29.038Z,9.12
2023-05-14T05:15:29.210Z,9.19
2023-05-14T05:16:29.361Z,9.26
2023-05-14T05:17:29.487Z,9.34
2023-05-14T05:18:29.601Z,9.45
2023-05-14T05:19:42.477Z,9.57
2023-05-14T05:20:30.892Z,9.69
2023-05-14T05:21:30.006Z,9.79
2023-05-14T05:22:30.246Z,9.88
2023-05-14T05:23:30.247Z,9.96
2023-05-14T05:24:30.453Z,10.00
2023-05-14T05:25:30.541Z,10.04
2023-05-14T05:26:30.818Z,10.07
2023-05-14T05:27:30.770Z,10.12
2023-05-14T05:28:30.966Z,10.18
2023-05-14T05:29:31.124Z,10.25
2023-05-14T05:30:31.395Z,10.34
2023-05-14T05:31:31.403Z,10.42
2023-05-14T05:32:31.669Z,10.50
2023-05-14T05:33:31.704Z,10.57
2023-05-14T05:34:31.625Z,10.63
2023-05-14T05:35:31.801Z,10.68
2023-05-14T05:36:31.959Z,10.75
2023-05-14T05:37:32.029Z,10.83
2023-05-14T05:38:32.166Z,10.90
2023-05-14T05:39:32.232Z,10.97
2023-05-14T05:40:32.343Z,11.05
2023-05-14T05:41:32.438Z,11.15
2023-05-14T05:42:32.725Z,11.25
2023-05-14T05:43:32.754Z,11.34
2023-05-14T05:44:32.878Z,11.43
2023-05-14T05:45:32.946Z,11.52
2023-05-14T05:46:33.128Z,11.61
2023-05-14T05:47:33.180Z,11.66
2023-05-14T05:48:33.391Z,11.64
2023-05-14T05:49:33.456Z,11.55
2023-05-14T05:50:33.538Z,11.41
2023-05-14T05:51:33.730Z,11.29
2023-05-14T05:52:33.922Z,11.21
2023-05-14T05:53:33.931Z,11.16
2023-05-14T05:54:34.123Z,11.11
2023-05-14T05:55:34.200Z,11.08
2023-05-14T05:56:34.469Z,11.09
2023-05-14T05:57:34.539Z,11.14
2023-05-14T05:58:35.336Z,11.20
2023-05-14T05:59:34.827Z,11.24
2023-05-14T06:00:34.948Z,11.29
2023-05-14T06:01:35.048Z,11.36
2023-05-14T06:02:35.186Z,11.44
2023-05-14T06:03:35.337Z,11.51
2023-05-14T06:04:35.457Z,11.63
2023-05-14T06:05:35.780Z,11.77
2023-05-14T06:06:35.812Z,11.93
2023-05-14T06:07:35.797Z,12.09
2023-05-14T06:08:35.971Z,12.24
2023-05-14T06:09:36.003Z,12.38
2023-05-14T06:10:36.118Z,12.51
2023-05-14T06:11:36.289Z,12.58
2023-05-14T06:12:36.500Z,12.61
2023-05-14T06:13:36.538Z,12.64
2023-05-14T06:14:36.633Z,12.69
2023-05-14T06:15:36.895Z,12.71
2023-05-14T06:16:37.025Z,12.70
2023-05-14T06:17:37.105Z,12.71
2023-05-14T06:18:37.336Z,12.71
2023-05-14T06:19:37.295Z,12.65
2023-05-14T06:20:37.548Z,12.58
2023-05-14T06:21:37.536Z,12.59
2023-05-14T06:22:37.657Z,12.62
2023-05-14T06:23:37.787Z,12.66
2023-05-14T06:24:37.870Z,12.65
2023-05-14T06:25:38.052Z,12.65
2023-05-14T06:26:38.123Z,12.66
2023-05-14T06:27:38.267Z,12.68
2023-05-14T06:28:38.389Z,12.71
2023-05-14T06:29:38.526Z,12.67
2023-05-14T06:30:38.636Z,12.53
2023-05-14T06:31:38.776Z,12.29
2023-05-14T06:32:38.887Z,12.08
2023-05-14T06:33:39.018Z,11.94
2023-05-14T06:34:39.052Z,11.83
2023-05-14T06:35:39.157Z,11.73
2023-05-14T06:36:39.482Z,11.65
2023-05-14T06:37:39.457Z,11.58
2023-05-14T06:38:39.608Z,11.53
2023-05-14T06:39:39.728Z,11.48
2023-05-14T06:40:39.824Z,11.39
2023-05-14T06:41:39.979Z,11.28
2023-05-14T06:42:40.080Z,11.21
2023-05-14T06:43:40.202Z,11.19
2023-05-14T06:44:40.308Z,11.21
2023-05-14T06:45:40.446Z,11.25
2023-05-14T06:46:40.556Z,11.26
2023-05-14T06:47:40.715Z,11.24
2023-05-14T06:48:40.802Z,11.18
2023-05-14T06:49:40.919Z,11.15
2023-05-14T06:50:41.015Z,11.12
2023-05-14T06:51:41.202Z,11.08
2023-05-14T06:52:41.310Z,11.05
2023-05-14T06:53:41.441Z,11.06
2023-05-14T06:54:41.616Z,11.09
2023-05-14T06:55:41.717Z,11.10
2023-05-14T06:56:41.844Z,11.10
2023-05-14T06:57:42.037Z,11.09
2023-05-14T06:58:42.141Z,11.06
2023-05-14T06:59:42.204Z,11.03
2023-05-14T07:00:42.340Z,11.03
2023-05-14T07:01:42.450Z,11.04
2023-05-14T07:02:42.717Z,11.02
2023-05-14T07:03:42.678Z,10.96
2023-05-14T07:04:42.850Z,10.89
2023-05-14T07:05:42.914Z,10.85
2023-05-14T07:06:43.103Z,10.83
2023-05-14T07:07:43.142Z,10.86
2023-05-14T07:08:43.288Z,10.89
2023-05-14T07:09:43.365Z,10.92
2023-05-14T07:10:43.506Z,10.94
2023-05-14T07:11:43.631Z,11.00
2023-05-14T07:12:43.814Z,11.07
2023-05-14T07:13:43.913Z,11.16
2023-05-14T07:14:44.017Z,11.25
2023-05-14T07:15:44.128Z,11.29
2023-05-14T07:16:44.376Z,11.30
2023-05-14T07:17:44.424Z,11.32
2023-05-14T07:18:44.571Z,11.37
2023-05-14T07:19:44.575Z,11.39
2023-05-14T07:20:44.703Z,11.42
2023-05-14T07:21:44.823Z,11.46
2023-05-14T07:22:44.932Z,11.52
2023-05-14T07:23:45.066Z,11.59
2023-05-14T07:24:45.177Z,11.68
2023-05-14T07:25:45.296Z,11.75
2023-05-14T07:26:45.442Z,11.78
2023-05-14T07:27:45.602Z,11.81
2023-05-14T07:28:45.713Z,11.84
2023-05-14T07:29:45.766Z,11.87
2023-05-14T07:30:45.916Z,11.93
2023-05-14T07:31:46.149Z,11.96
2023-05-14T07:32:46.204Z,11.99
2023-05-14T07:33:46.316Z,12.00
2023-05-14T07:34:46.372Z,12.00
2023-05-14T07:35:46.504Z,12.02
2023-05-14T07:36:46.698Z,12.06
2023-05-14T07:37:46.829Z,12.12
2023-05-14T07:38:46.912Z,12.15
2023-05-14T07:39:47.042Z,12.16
2023-05-14T07:40:47.151Z,12.18
2023-05-14T07:41:47.301Z,12.22
2023-05-14T07:42:47.465Z,12.26
2023-05-14T07:43:47.539Z,12.28
2023-05-14T07:44:47.668Z,12.27
2023-05-14T07:45:47.891Z,12.25
2023-05-14T07:46:47.905Z,12.21
2023-05-14T07:47:48.179Z,12.17
2023-05-14T07:48:48.202Z,12.15
2023-05-14T07:49:48.364Z,12.15
2023-05-14T07:50:48.433Z,12.16
2023-05-14T07:51:48.515Z,12.17
2023-05-14T07:52:48.669Z,12.23
2023-05-14T07:53:48.774Z,12.33
2023-05-14T07:54:50.569Z,12.42
2023-05-14T07:55:49.051Z,12.48
2023-05-14T07:56:49.204Z,12.52
2023-05-14T07:57:49.309Z,12.55
2023-05-14T07:58:49.428Z,12.59
2023-05-14T07:59:49.541Z,12.64
2023-05-14T08:00:49.695Z,12.66
2023-05-14T08:01:49.906Z,12.62
2023-05-14T08:02:50.179Z,12.59
2023-05-14T08:03:50.195Z,12.56
2023-05-14T08:04:50.161Z,12.54
2023-05-14T08:05:50.273Z,12.52
2023-05-14T08:06:50.471Z,12.52
2023-05-14T08:07:50.535Z,12.55
2023-05-14T08:08:50.655Z,12.59
2023-05-14T08:09:50.784Z,12.65
2023-05-14T08:10:50.940Z,12.68
2023-05-14T08:11:50.974Z,12.70
2023-05-14T08:12:51.102Z,12.74
2023-05-14T08:13:51.220Z,12.79
2023-05-14T08:14:51.368Z,12.86
2023-05-14T08:15:51.539Z,12.93
2023-05-14T08:16:51.695Z,12.99
2023-05-14T08:17:51.866Z,13.03
2023-05-14T08:18:51.946Z,13.07
2023-05-14T08:19:52.054Z,13.11
2023-05-14T08:20:52.189Z,13.16
2023-05-14T08:21:52.261Z,13.21
2023-05-14T08:22:52.522Z,13.24
2023-05-14T08:23:52.505Z,13.30
2023-05-14T08:24:52.645Z,13.37
2023-05-14T08:25:52.800Z,13.47
2023-05-14T08:26:52.882Z,13.53
2023-05-14T08:27:53.035Z,13.57
2023-05-14T08:28:53.153Z,13.60
2023-05-14T08:29:53.283Z,13.59
2023-05-14T08:30:53.468Z,13.57
2023-05-14T08:31:53.528Z,13.55
2023-05-14T08:32:53.679Z,13.54
2023-05-14T08:33:53.823Z,13.47
2023-05-14T08:34:53.917Z,13.37
2023-05-14T08:35:54.014Z,13.37
2023-05-14T08:36:54.182Z,13.42
2023-05-14T08:37:54.298Z,13.37
2023-05-14T08:38:54.445Z,13.28
2023-05-14T08:39:54.548Z,13.26
2023-05-14T08:40:54.628Z,13.30
2023-05-14T08:41:54.784Z,13.38
2023-05-14T08:42:54.934Z,13.46
2023-05-14T08:43:55.109Z,13.51
2023-05-14T08:44:55.160Z,13.52
2023-05-14T08:45:55.276Z,13.53
2023-05-14T08:46:55.387Z,13.54
2023-05-14T08:47:55.787Z,13.57
2023-05-14T08:48:55.681Z,13.61
2023-05-14T08:49:55.802Z,13.65
2023-05-14T08:50:55.936Z,13.73
2023-05-14T08:51:56.022Z,13.81
2023-05-14T08:52:56.184Z,13.82
2023-05-14T08:53:56.296Z,13.82
2023-05-14T08:54:56.365Z,13.87
2023-05-14T08:55:56.589Z,13.97
2023-05-14T08:56:56.772Z,14.11
2023-05-14T08:57:56.778Z,14.27
2023-05-14T08:58:56.924Z,14.44
2023-05-14T08:59:57.052Z,14.56
2023-05-14T09:00:57.199Z,14.53
2023-05-14T09:01:57.276Z,14.44
2023-05-14T09:02:57.464Z,14.38
2023-05-14T09:03:57.570Z,14.39
2023-05-14T09:04:57.683Z,14.45
2023-05-14T09:05:59.973Z,14.51
2023-05-14T09:06:57.924Z,14.57
2023-05-14T09:07:58.076Z,14.57
2023-05-14T09:08:58.207Z,14.46
2023-05-14T09:09:58.338Z,14.36
2023-05-14T09:10:58.472Z,14.35
2023-05-14T09:11:58.540Z,14.39
2023-05-14T09:12:58.708Z,14.49
2023-05-14T09:13:58.894Z,14.62
2023-05-14T09:14:59.013Z,14.72
2023-05-14T09:15:59.150Z,14.78
2023-05-14T09:16:59.394Z,14.87
2023-05-14T09:17:59.373Z,14.99
2023-05-14T09:18:59.518Z,15.11
2023-05-14T09:19:59.664Z,15.14
2023-05-14T09:20:59.733Z,15.04
2023-05-14T09:21:59.947Z,14.91
2023-05-14T09:22:59.971Z,14.79
2023-05-14T09:24:00.161Z,14.72
2023-05-14T09:25:00.276Z,14.69
2023-05-14T09:26:00.381Z,14.68
2023-05-14T09:27:00.510Z,14.75
2023-05-14T09:28:00.674Z,14.89
2023-05-14T09:29:00.774Z,15.00
2023-05-14T09:30:00.892Z,15.07
2023-05-14T09:31:01.005Z,15.10
2023-05-14T09:32:01.135Z,15.16
2023-05-14T09:33:01.299Z,15.29
2023-05-14T09:34:01.384Z,15.41
2023-05-14T09:35:01.516Z,15.48
2023-05-14T09:36:01.655Z,15.51
2023-05-14T09:37:01.850Z,15.48
2023-05-14T09:38:01.968Z,15.41
2023-05-14T09:39:02.027Z,15.44
2023-05-14T09:40:02.129Z,15.55
2023-05-14T09:41:02.284Z,15.71
2023-05-14T09:42:02.370Z,15.91
2023-05-14T09:43:02.500Z,16.12
2023-05-14T09:44:04.160Z,16.30
2023-05-14T09:45:02.752Z,16.46
2023-05-14T09:46:02.889Z,16.61
2023-05-14T09:47:03.306Z,16.75
2023-05-14T09:48:03.370Z,16.87
2023-05-14T09:49:03.214Z,16.87
2023-05-14T09:50:03.337Z,16.78
2023-05-14T09:51:04.749Z,16.75
2023-05-14T09:52:03.658Z,16.81
2023-05-14T09:53:03.725Z,16.95
2023-05-14T09:54:03.901Z,17.14
2023-05-14T09:55:04.008Z,17.33
2023-05-14T09:56:04.185Z,17.36
2023-05-14T09:57:04.288Z,17.31
2023-05-14T09:58:04.420Z,17.34
2023-05-14T09:59:04.561Z,17.34
2023-05-14T10:00:04.670Z,17.22
2023-05-14T10:01:04.907Z,17.06
2023-05-14T10:02:04.937Z,16.91
2023-05-14T10:03:05.156Z,16.82
2023-05-14T10:04:05.251Z,16.85
2023-05-14T10:05:05.338Z,16.91
2023-05-14T10:06:05.488Z,16.98
2023-05-14T10:07:05.585Z,17.03
2023-05-14T10:08:05.766Z,16.99
2023-05-14T10:09:05.850Z,16.84
2023-05-14T10:10:05.972Z,16.70
2023-05-14T10:11:06.183Z,16.62
2023-05-14T10:12:06.221Z,16.61
2023-05-14T10:13:06.342Z,16.64
2023-05-14T10:14:06.571Z,16.63
2023-05-14T10:15:06.598Z,16.58
2023-05-14T10:16:06.763Z,16.54
2023-05-14T10:17:06.879Z,16.58
2023-05-14T10:18:06.989Z,16.70
2023-05-14T10:19:07.280Z,16.80
2023-05-14T10:20:07.214Z,16.81
2023-05-14T10:21:07.328Z,16.78
2023-05-14T10:22:07.510Z,16.83
2023-05-14T10:23:07.554Z,17.00
2023-05-14T10:24:07.700Z,17.17
2023-05-14T10:25:07.810Z,17.33
2023-05-14T10:26:07.912Z,17.52
2023-05-14T10:27:08.091Z,17.75
2023-05-14T10:28:08.168Z,18.00
2023-05-14T10:29:08.324Z,18.26
2023-05-14T10:30:08.435Z,18.51
2023-05-14T10:31:08.680Z,18.71
2023-05-14T10:32:08.741Z,18.81
2023-05-14T10:33:08.963Z,18.69
2023-05-14T10:34:08.975Z,18.50
2023-05-14T10:35:09.074Z,18.43
2023-05-14T10:36:09.202Z,18.47
2023-05-14T10:37:09.321Z,18.48
2023-05-14T10:38:09.456Z,18.41
2023-05-14T10:39:09.548Z,18.29
2023-05-14T10:40:09.652Z,18.18
2023-05-14T10:41:09.752Z,18.17
2023-05-14T10:42:09.887Z,18.23
2023-05-14T10:43:10.061Z,18.34
2023-05-14T10:44:10.193Z,18.46
2023-05-14T10:45:10.269Z,18.58
2023-05-14T10:46:10.441Z,18.74
2023-05-14T10:47:10.552Z,18.92
2023-05-14T10:48:10.684Z,19.05
2023-05-14T10:49:10.744Z,19.18
2023-05-14T10:50:10.923Z,19.22
2023-05-14T10:51:11.091Z,19.13
2023-05-14T10:52:11.153Z,19.00
2023-05-14T10:53:11.284Z,18.94
2023-05-14T10:54:11.404Z,18.93
2023-05-14T10:55:11.494Z,18.87
2023-05-14T10:56:11.614Z,18.76
2023-05-14T10:57:11.690Z,18.69
2023-05-14T10:58:11.821Z,18.73
2023-05-14T10:59:11.865Z,18.84
2023-05-14T11:00:11.995Z,18.98
2023-05-14T11:01:12.199Z,19.13
2023-05-14T11:02:12.277Z,19.24
2023-05-14T11:03:12.607Z,19.26
2023-05-14T11:04:12.627Z,19.18
2023-05-14T11:05:12.636Z,19.12
2023-05-14T11:06:12.746Z,19.14
2023-05-14T11:07:12.914Z,19.24
2023-05-14T11:08:13.011Z,19.30
2023-05-14T11:09:13.115Z,19.33
2023-05-14T11:10:13.248Z,19.41
2023-05-14T11:11:13.955Z,19.49
2023-05-14T11:12:13.473Z,19.53
2023-05-14T11:13:13.587Z,19.56
2023-05-14T11:14:13.677Z,19.61
2023-05-14T11:15:13.783Z,19.70
2023-05-14T11:16:22.712Z,19.80
2023-05-14T11:17:15.127Z,19.89
2023-05-14T11:18:14.379Z,19.91
2023-05-14T11:19:14.310Z,19.88
2023-05-14T11:20:14.397Z,19.82
2023-05-14T11:21:14.522Z,19.72
2023-05-14T11:22:14.627Z,19.62
2023-05-14T11:23:14.773Z,19.58
2023-05-14T11:24:14.835Z,19.60
2023-05-14T11:25:15.216Z,19.66
2023-05-14T11:26:15.124Z,19.79
2023-05-14T11:27:15.185Z,19.99
2023-05-14T11:28:15.381Z,20.21
2023-05-14T11:29:15.485Z,20.42
2023-05-14T11:30:15.649Z,20.54
2023-05-14T11:31:15.827Z,20.58
2023-05-14T11:32:15.854Z,20.65
2023-05-14T11:33:16.122Z,20.69
2023-05-14T11:34:16.090Z,20.62
2023-05-14T11:35:16.199Z,20.47
2023-05-14T11:36:16.404Z,20.30
2023-05-14T11:37:16.449Z,20.16
2023-05-14T11:38:16.544Z,20.12
2023-05-14T11:39:16.761Z,20.17
2023-05-14T11:40:17.013Z,20.27
2023-05-14T11:41:17.003Z,20.40
2023-05-14T11:42:17.193Z,20.45
2023-05-14T11:43:17.311Z,20.45
2023-05-14T11:44:17.366Z,20.50
2023-05-14T11:45:17.505Z,20.54
2023-05-14T11:46:17.680Z,20.59
2023-05-14T11:47:17.760Z,20.69
2023-05-14T11:48:17.883Z,20.84
2023-05-14T11:49:17.956Z,21.00
2023-05-14T11:50:18.053Z,21.16
2023-05-14T11:51:18.200Z,21.28
2023-05-14T11:52:18.311Z,21.28
2023-05-14T11:53:18.478Z,21.11
2023-05-14T11:54:18.513Z,20.88
2023-05-14T11:55:18.642Z,20.71
2023-05-14T11:56:18.751Z,20.60
2023-05-14T11:57:18.846Z,20.50
2023-05-14T11:58:18.999Z,20.39
2023-05-14T11:59:20.624Z,20.29
2023-05-14T12:00:19.320Z,20.25
2023-05-14T12:01:19.382Z,20.30
2023-05-14T12:02:19.569Z,20.39
2023-05-14T12:03:19.840Z,20.49
2023-05-14T12:04:19.844Z,20.63
2023-05-14T12:05:19.973Z,20.76
2023-05-14T12:06:20.028Z,20.87
2023-05-14T12:07:20.147Z,20.97
2023-05-14T12:08:20.269Z,21.05
2023-05-14T12:09:20.411Z,21.07
2023-05-14T12:10:20.539Z,21.04
2023-05-14T12:11:20.706Z,21.05
2023-05-14T12:12:20.750Z,21.13
2023-05-14T12:13:20.849Z,21.22
2023-05-14T12:14:20.969Z,21.28
2023-05-14T12:15:21.088Z,21.21
2023-05-14T12:16:21.262Z,21.01
2023-05-14T12:17:21.435Z,20.84
2023-05-14T12:18:25.073Z,20.78
2023-05-14T12:19:21.630Z,20.81
2023-05-14T12:20:21.869Z,20.90
2023-05-14T12:21:21.892Z,21.06
2023-05-14T12:22:21.999Z,21.24
2023-05-14T12:23:22.175Z,21.42
2023-05-14T12:24:22.198Z,21.52
2023-05-14T12:25:22.308Z,21.58
2023-05-14T12:26:22.591Z,21.63
2023-05-14T12:27:22.541Z,21.67
2023-05-14T12:28:22.662Z,21.74
2023-05-14T12:29:22.766Z,21.76
2023-05-14T12:30:22.939Z,21.71
2023-05-14T12:31:23.114Z,21.71
2023-05-14T12:32:23.223Z,21.76
2023-05-14T12:33:23.254Z,21.81
2023-05-14T12:34:23.399Z,21.85
2023-05-14T12:35:23.858Z,21.83
2023-05-14T12:36:23.641Z,21.75
2023-05-14T12:37:23.750Z,21.67
2023-05-14T12:38:23.848Z,21.66
2023-05-14T12:39:24.018Z,21.67
2023-05-14T12:40:24.471Z,21.68
2023-05-14T12:41:24.268Z,21.76
2023-05-14T12:42:24.376Z,21.92
2023-05-14T12:43:24.466Z,22.13
2023-05-14T12:44:24.769Z,22.36
2023-05-14T12:45:24.974Z,22.56
2023-05-14T12:46:24.886Z,22.72
2023-05-14T12:47:25.039Z,22.86
2023-05-14T12:48:25.304Z,22.92
2023-05-14T12:49:25.415Z,22.93
2023-05-14T12:50:25.673Z,22.96
2023-05-14T12:51:25.567Z,23.03
2023-05-14T12:52:36.920Z,23.05
2023-05-14T12:53:26.766Z,22.99
2023-05-14T12:54:25.908Z,22.91
2023-05-14T12:55:26.040Z,22.88
2023-05-14T12:56:26.127Z,22.92
2023-05-14T12:57:26.273Z,22.91
2023-05-14T12:58:26.414Z,22.89
2023-05-14T12:59:26.538Z,22.91
2023-05-14T13:00:26.777Z,22.95
2023-05-14T13:01:26.789Z,22.93
2023-05-14T13:02:26.852Z,22.84
2023-05-14T13:03:26.955Z,22.79
2023-05-14T13:04:27.143Z,22.82